createdAt,value
2018-09-17T00:05:40.961Z,1007.5
2018-09-17T00:15:42.662Z,1007.4
2018-09-17T00:25:44.654Z,1007.4
2018-09-17T00:35:46.761Z,1007.4
2018-09-17T00:45:48.457Z,1007.3
2018-09-17T00:55:49.982Z,1007.4
2018-09-17T01:05:51.756Z,1007.5
2018-09-17T01:15:53.998Z,1007.5
2018-09-17T01:25:55.376Z,1007.4
2018-09-17T01:35:56.730Z,1007.4
2018-09-17T01:45:58.776Z,1007.5
2018-09-17T01:56:00.687Z,1007.4
2018-09-17T02:06:03.085Z,1007.2
2018-09-17T02:16:05.060Z,1007.2
2018-09-17T02:26:07.024Z,1007.1
2018-09-17T02:36:09.359Z,1007.1
2018-09-17T02:46:11.884Z,1007.3
2018-09-17T02:56:13.279Z,1007.3
2018-09-17T03:06:15.364Z,1007.2
2018-09-17T03:16:17.113Z,1007.2
2018-09-17T03:26:19.094Z,1007.4
2018-09-17T03:36:20.949Z,1007.5
2018-09-17T03:46:22.884Z,1007.4
2018-09-17T03:56:24.537Z,1007.4
2018-09-17T04:06:26.661Z,1007.4
2018-09-17T04:16:28.567Z,1007.3
2018-09-17T04:26:30.395Z,1007.3
2018-09-17T04:36:32.461Z,1007.2
2018-09-17T04:46:34.454Z,1007.2
2018-09-17T04:56:36.380Z,1007.3
2018-09-17T05:06:38.416Z,1007.5
2018-09-17T05:16:40.492Z,1007.6
2018-09-17T05:26:42.142Z,1007.7
2018-09-17T05:36:44.341Z,1007.7
2018-09-17T05:46:46.327Z,1007.7
2018-09-17T05:56:47.906Z,1007.9
2018-09-17T06:06:49.900Z,1007.8
2018-09-17T06:16:51.793Z,1007.8
2018-09-17T06:26:53.464Z,1007.9
2018-09-17T06:46:57.192Z,1008
2018-09-17T06:56:58.854Z,1008.2
2018-09-17T07:07:01.073Z,1008.3
2018-09-17T07:17:02.920Z,1008.3
2018-09-17T07:27:04.931Z,1008.1
2018-09-17T07:37:06.970Z,1008.1
2018-09-17T07:47:09.216Z,1008.1
2018-09-17T07:57:11.071Z,1008.1
2018-09-17T08:07:13.063Z,1008.1
2018-09-17T08:17:14.758Z,1008.2
2018-09-17T08:27:16.431Z,1008.1
2018-09-17T08:37:18.455Z,1007.9
2018-09-17T08:47:20.556Z,1007.9
2018-09-17T08:57:22.383Z,1007.8
2018-09-17T09:07:23.985Z,1007.9
2018-09-17T09:17:26.160Z,1008
2018-09-17T09:27:28.170Z,1007.9
2018-09-17T09:37:30.546Z,1007.8
2018-09-17T09:47:32.499Z,1007.9
2018-09-17T09:57:34.464Z,1007.8
2018-09-17T10:07:36.568Z,1007.7
2018-09-17T10:17:38.557Z,1007.7
2018-09-17T10:27:40.385Z,1007.7
2018-09-17T10:37:42.364Z,1007.6
2018-09-17T10:47:44.690Z,1007.5
2018-09-17T10:57:46.872Z,1007.4
2018-09-17T11:07:48.487Z,1007.4
2018-09-17T11:17:50.453Z,1007.3
2018-09-17T11:27:52.482Z,1007.1
2018-09-17T11:37:54.669Z,1007.1
2018-09-17T11:47:56.284Z,1007.2
2018-09-17T11:57:58.203Z,1007
2018-09-17T12:07:59.335Z,1006.9
2018-09-17T12:18:01.008Z,1006.8
2018-09-17T12:28:03.054Z,1006.7
2018-09-17T12:38:05.020Z,1006.5
2018-09-17T12:48:07.124Z,1006.5
2018-09-17T12:58:09.246Z,1006.4
2018-09-17T13:08:12.031Z,1006.3
2018-09-17T13:18:14.489Z,1006.2
2018-09-17T13:28:16.581Z,1006.2
2018-09-17T13:38:18.635Z,1006
2018-09-17T13:48:20.266Z,1005.9
2018-09-17T13:58:22.185Z,1005.9
2018-09-17T14:08:24.149Z,1005.8
2018-09-17T14:18:27.653Z,1005.8
2018-09-17T14:28:29.089Z,1005.7
2018-09-17T14:38:31.210Z,1005.6
2018-09-17T14:48:33.413Z,1005.5
2018-09-17T14:58:35.223Z,1005.3
2018-09-17T15:08:37.595Z,1005.2
2018-09-17T15:18:39.612Z,1005.2
2018-09-17T15:28:41.448Z,1005.2
2018-09-17T15:38:43.135Z,1005
2018-09-17T15:48:45.055Z,1004.9
2018-09-17T15:58:47.307Z,1004.9
2018-09-17T16:08:49.316Z,1004.8
2018-09-17T16:18:51.071Z,1004.8
2018-09-17T16:28:53.133Z,1004.7
2018-09-17T16:38:55.265Z,1004.7
2018-09-17T16:48:57.032Z,1004.7
2018-09-17T16:58:58.983Z,1004.6
2018-09-17T17:09:00.464Z,1004.6
2018-09-17T17:19:02.476Z,1004.6
2018-09-17T17:29:03.994Z,1004.7
2018-09-17T17:39:05.802Z,1004.7
2018-09-17T17:49:07.373Z,1004.6
2018-09-17T17:59:09.022Z,1004.6
2018-09-17T18:09:11.075Z,1004.7
2018-09-17T18:19:13.060Z,1004.6
2018-09-17T18:29:15.047Z,1004.6
2018-09-17T18:39:16.859Z,1004.6
2018-09-17T18:49:18.384Z,1004.5
2018-09-17T18:59:20.401Z,1004.6
2018-09-17T19:09:22.866Z,1004.6
2018-09-17T19:19:24.728Z,1004.4
2018-09-17T19:29:26.468Z,1004.5
2018-09-17T19:39:28.368Z,1004.6
2018-09-17T19:49:29.873Z,1004.4
2018-09-17T19:59:31.848Z,1004.4
2018-09-17T20:09:33.337Z,1004.3
2018-09-17T20:19:34.966Z,1004.3
2018-09-17T20:29:36.736Z,1004.3
2018-09-17T20:39:38.330Z,1004.2
2018-09-17T20:49:40.377Z,1004.1
2018-09-17T20:59:42.099Z,1004
2018-09-17T21:09:44.220Z,1004
2018-09-17T21:19:46.067Z,1004
2018-09-17T21:29:47.612Z,1003.9
2018-09-17T21:39:49.758Z,1003.9
2018-09-17T21:49:51.724Z,1003.8
2018-09-17T21:59:53.374Z,1003.8
2018-09-17T22:09:56.133Z,1003.7
2018-09-17T22:19:57.526Z,1003.7
2018-09-17T22:29:59.085Z,1003.6
2018-09-17T22:40:01.147Z,1003.6
2018-09-17T22:50:03.371Z,1003.5
2018-09-17T23:00:05.468Z,1003.5
2018-09-17T23:10:07.321Z,1003.5
2018-09-17T23:20:09.273Z,1003.4
2018-09-17T23:30:11.162Z,1003.4
2018-09-17T23:40:12.584Z,1003.3
2018-09-17T23:50:14.536Z,1003.2
